KMFE/MFE METAR and TAF weather

Enter ICAO airport designator
Station Type Date Time Source
KMFE METAR 2021/03/02 16:53 UTC NOAA

KMFE 021653Z 33012KT 10SM OVC075 15/04 A3030 RMK AO2 SLP259 T01500039


Station Type Date Time Source
KMFE Decoded METAR 2021/03/02 16:53 UTC NOAA

MCALLEN MILLER INTERNATIONAL AIRPORT , TX, United States (KMFE) 26-11N 98-15W 38M
Mar 02, 2021 - 11:53 AM EST / 2021.03.02 1653 UTC
Wind: from the NNW (330 degrees) at 14 MPH (12 KT):0
Visibility: 10 mile(s):0
Sky conditions: overcast
Temperature: 59.0 F (15.0 C)
Dew Point: 39.0 F (3.9 C)
Relative Humidity: 47%
Pressure (altimeter): 30.3 in. Hg (1026 hPa)
ob: KMFE 021653Z 33012KT 10SM OVC075 15/04 A3030 RMK AO2 SLP259 T01500039
cycle: 17

Station Type Date Time Source
KMFE TAF 2021/03/02 12:30 UTC NOAA

TAF KMFE 021129Z 0212/0312 33010KT P6SM BKN050
FM022100 36008KT P6SM BKN070
FM030000 05003KT P6SM SCT070

Example: see airport list